Weesatche, Texas
Current Conditions -  °F | °C
As of 6:53 AM on Thursday 23 Oct 2014 (Local Time) from KVCT Reporting Station
Haze Haze  
Wind Chill: 61°   Ceiling: Unl
Heat Index: 61°   Visibility: 5mi
Dew Point: 58°   Wind: 8mph
Humidity: 90%   Direction: 340°NNW
Pressure: 30.09"   Gusts: NA
Location:  28.85°N, 97.45°W
Report Text: KVCT 231153Z 34007KT 5SM BR SCT095 16/14 A3009 RMK AO2 T01610144
Loading
Personal Weather Stations






























Interactive Weather Map
Tropical Storm Tracking
New forecast layout! Learn more

10-Day Weather Forecast

Advertisements
Track Severe Weather on mobile